Time;durP1;ratioP1;P1;durP2;ratioP2;P2;SDS_P1;SDS_P2;PMS_P1;PMS_P2;Temp;Humidity;BMP_temperature;BMP_pressure;BME280_temperature;BME280_humidity;BME280_pressure;Samples;Min_cycle;Max_cycle;Signal;HPM_P1;HPM_P2
2021/09/15 00:00:41;;;;;;;6.45;5.30;;;19.80;85.70;;;;;;5033839;28;20385;-77
2021/09/15 00:03:06;;;;;;;9.60;6.07;;;19.80;86.00;;;;;;5051709;28;20469;-77
2021/09/15 00:05:32;;;;;;;8.77;5.60;;;19.80;85.80;;;;;;5033875;28;20488;-76
2021/09/15 00:07:57;;;;;;;7.03;5.47;;;19.80;86.20;;;;;;5033690;28;20394;-76
2021/09/15 00:10:23;;;;;;;8.43;5.43;;;19.80;85.80;;;;;;5051619;28;20829;-77
2021/09/15 00:12:49;;;;;;;7.68;5.38;;;19.80;86.10;;;;;;5033696;28;20412;-76
2021/09/15 00:15:14;;;;;;;6.53;5.83;;;19.80;85.90;;;;;;5033556;28;20406;-77
2021/09/15 00:17:40;;;;;;;8.30;5.32;;;19.80;86.60;;;;;;5033665;28;20404;-76
2021/09/15 00:20:07;;;;;;;8.30;5.47;;;19.80;86.20;;;;;;5051206;28;20423;-77
2021/09/15 00:22:33;;;;;;;9.63;5.47;;;19.70;86.40;;;;;;5051377;28;20454;-77
2021/09/15 00:24:59;;;;;;;9.10;5.47;;;19.70;86.20;;;;;;5033385;28;20882;-77
2021/09/15 00:27:24;;;;;;;9.63;5.55;;;19.70;86.50;;;;;;5033484;28;20397;-77
2021/09/15 00:29:50;;;;;;;5.97;5.17;;;19.80;86.30;;;;;;5051288;28;20439;-76
2021/09/15 00:32:16;;;;;;;7.60;5.68;;;19.80;86.40;;;;;;5033458;28;20443;-77
2021/09/15 00:34:41;;;;;;;8.30;5.77;;;19.80;85.90;;;;;;5051195;28;20451;-77
2021/09/15 00:37:07;;;;;;;7.43;5.32;;;19.80;86.10;;;;;;5033098;28;20397;-76
2021/09/15 00:39:32;;;;;;;9.30;5.80;;;19.70;86.30;;;;;;5033574;28;20393;-76
2021/09/15 00:41:58;;;;;;;8.75;6.05;;;19.70;86.30;;;;;;5032445;28;20394;-76
2021/09/15 00:44:23;;;;;;;7.27;5.30;;;19.70;86.50;;;;;;5051170;28;20835;-77
2021/09/15 00:46:50;;;;;;;6.90;5.68;;;19.70;86.10;;;;;;5051146;28;20373;-77
2021/09/15 00:49:16;;;;;;;6.88;5.20;;;19.80;86.90;;;;;;5033260;28;20381;-76
2021/09/15 00:51:42;;;;;;;7.67;5.27;;;19.80;86.80;;;;;;5033250;28;20393;-77
2021/09/15 00:54:12;;;;;;;8.17;5.50;;;19.80;86.10;;;;;;5033127;28;20389;-77
2021/09/15 00:56:38;;;;;;;7.88;5.38;;;19.70;87.10;;;;;;5033050;28;20429;-77
2021/09/15 00:59:04;;;;;;;8.35;5.32;;;19.80;86.70;;;;;;5033067;28;20408;-77
2021/09/15 01:01:30;;;;;;;6.67;5.50;;;19.70;86.30;;;;;;5033155;28;20756;-76
2021/09/15 01:03:56;;;;;;;6.97;5.30;;;19.60;86.90;;;;;;5033421;28;20385;-77
2021/09/15 01:06:22;;;;;;;6.97;5.22;;;19.70;86.40;;;;;;5033125;28;20393;-76
2021/09/15 01:08:48;;;;;;;10.93;5.53;;;19.70;86.30;;;;;;5051018;28;20391;-78
2021/09/15 01:11:14;;;;;;;7.18;5.78;;;19.60;86.50;;;;;;5050872;28;20730;-76
2021/09/15 01:13:40;;;;;;;8.52;5.55;;;19.60;86.70;;;;;;5033094;28;20893;-78
2021/09/15 01:16:06;;;;;;;9.23;5.38;;;19.60;86.30;;;;;;5033029;28;20448;-76
2021/09/15 01:18:32;;;;;;;6.78;5.25;;;19.60;86.50;;;;;;5051189;28;20481;-76
2021/09/15 01:20:58;;;;;;;6.47;5.17;;;19.60;86.30;;;;;;5032673;28;20948;-76
2021/09/15 01:23:24;;;;;;;8.18;5.97;;;19.50;86.40;;;;;;5032949;28;20442;-76
2021/09/15 01:25:49;;;;;;;7.45;5.35;;;19.50;87.10;;;;;;5050802;28;20479;-76
2021/09/15 01:28:16;;;;;;;10.90;5.40;;;19.40;87.20;;;;;;5032784;28;20482;-76
2021/09/15 01:30:41;;;;;;;7.47;5.10;;;19.40;87.30;;;;;;5050468;28;20914;-76
2021/09/15 01:33:16;;;;;;;7.25;5.13;;;19.40;87.20;;;;;;5050622;28;20481;-76
2021/09/15 01:35:42;;;;;;;7.05;5.32;;;19.40;87.10;;;;;;5032745;28;20405;-76
2021/09/15 01:38:08;;;;;;;8.40;5.38;;;19.40;86.80;;;;;;5032789;28;20511;-76
2021/09/15 01:40:34;;;;;;;7.28;5.20;;;19.40;86.60;;;;;;5032536;28;20791;-76
2021/09/15 01:43:00;;;;;;;8.60;5.15;;;19.40;86.60;;;;;;5050473;28;20388;-76
2021/09/15 01:45:26;;;;;;;6.47;4.90;;;19.40;86.70;;;;;;5032796;28;20415;-76
2021/09/15 01:47:52;;;;;;;5.73;4.90;;;19.40;86.60;;;;;;5032748;28;20443;-77
2021/09/15 01:50:17;;;;;;;5.97;5.22;;;19.30;86.80;;;;;;5032693;28;20390;-76
2021/09/15 01:52:43;;;;;;;7.00;4.82;;;19.40;86.70;;;;;;5033010;28;20885;-77
2021/09/15 01:55:22;;;;;;;6.33;5.13;;;19.30;87.10;;;;;;5053856;28;20940;-76
2021/09/15 01:57:48;;;;;;;6.33;5.17;;;19.30;87.30;;;;;;5036206;28;20950;-76
2021/09/15 02:00:14;;;;;;;7.03;4.90;;;19.30;87.10;;;;;;5036103;28;20519;-76
2021/09/15 02:02:39;;;;;;;6.20;5.18;;;19.30;87.30;;;;;;5036003;28;20389;-76
2021/09/15 02:05:05;;;;;;;7.13;5.53;;;19.30;87.50;;;;;;5036024;28;20386;-76
2021/09/15 02:07:30;;;;;;;5.95;5.35;;;19.30;87.50;;;;;;5035597;28;20416;-76
2021/09/15 02:09:56;;;;;;;7.53;5.22;;;19.30;87.40;;;;;;5036017;28;20389;-76
2021/09/15 02:12:21;;;;;;;7.77;5.77;;;19.30;87.70;;;;;;5053896;28;20455;-77
2021/09/15 02:14:47;;;;;;;9.10;5.93;;;19.30;87.50;;;;;;5035860;28;20409;-75
2021/09/15 02:17:13;;;;;;;6.93;4.83;;;19.30;88.10;;;;;;5053990;28;20382;-77
2021/09/15 02:19:38;;;;;;;7.03;5.30;;;19.30;87.60;;;;;;5035866;28;20785;-75
2021/09/15 02:22:04;;;;;;;7.50;5.87;;;19.20;87.70;;;;;;5035717;28;20782;-76
2021/09/15 02:24:30;;;;;;;8.83;5.93;;;19.30;88.80;;;;;;5053917;28;20464;-75
2021/09/15 02:26:56;;;;;;;12.38;6.05;;;19.20;88.50;;;;;;5035723;28;20393;-76
2021/09/15 02:29:22;;;;;;;8.05;6.47;;;19.30;88.20;;;;;;5035680;28;20896;-76
2021/09/15 02:31:47;;;;;;;7.37;6.20;;;19.20;88.80;;;;;;5053486;28;20381;-76
2021/09/15 02:34:13;;;;;;;7.32;5.65;;;19.30;88.80;;;;;;5053428;28;20845;-76
2021/09/15 02:36:38;;;;;;;7.57;6.17;;;19.30;88.60;;;;;;5053297;28;20401;-75
2021/09/15 02:39:04;;;;;;;10.43;6.15;;;19.30;88.50;;;;;;5053361;28;20700;-77
2021/09/15 02:41:29;;;;;;;10.03;6.90;;;19.30;88.80;;;;;;5035390;28;20873;-76
2021/09/15 02:43:55;;;;;;;7.25;5.85;;;19.30;88.70;;;;;;5035371;28;20397;-76
2021/09/15 02:46:21;;;;;;;8.40;5.97;;;19.30;88.50;;;;;;5035319;28;20386;-76
2021/09/15 02:48:47;;;;;;;7.53;5.85;;;19.30;88.70;;;;;;5035252;28;20738;-78
2021/09/15 02:51:12;;;;;;;8.77;6.60;;;19.30;88.00;;;;;;5035412;28;20731;-76
2021/09/15 02:53:38;;;;;;;8.07;6.20;;;19.30;88.50;;;;;;5035204;28;20385;-76
2021/09/15 02:56:03;;;;;;;8.48;6.50;;;19.30;88.70;;;;;;5052823;28;20903;-76
2021/09/15 02:58:29;;;;;;;9.13;6.80;;;19.30;88.90;;;;;;5035146;28;20432;-76
2021/09/15 03:00:55;;;;;;;7.10;5.60;;;19.20;88.80;;;;;;5052940;28;20843;-76
2021/09/15 03:03:20;;;;;;;8.13;6.30;;;19.30;88.20;;;;;;5035043;28;20381;-75
2021/09/15 03:05:46;;;;;;;10.53;6.17;;;19.30;88.90;;;;;;5033739;28;20451;-76
2021/09/15 03:08:12;;;;;;;6.65;5.20;;;19.30;88.40;;;;;;5034908;28;20396;-76
2021/09/15 03:10:37;;;;;;;6.90;6.00;;;19.30;87.90;;;;;;5052789;28;20416;-76
2021/09/15 03:13:03;;;;;;;8.68;6.03;;;19.30;88.50;;;;;;5035092;28;20390;-77
2021/09/15 03:15:28;;;;;;;6.97;6.03;;;19.20;88.30;;;;;;5052274;28;20933;-75
2021/09/15 03:17:54;;;;;;;8.48;6.32;;;19.20;88.50;;;;;;5034586;28;20397;-76
2021/09/15 03:20:20;;;;;;;8.98;6.88;;;19.30;88.40;;;;;;5034313;28;20448;-76
2021/09/15 03:22:45;;;;;;;9.87;6.10;;;19.20;88.40;;;;;;5034636;28;20385;-77
2021/09/15 03:25:11;;;;;;;9.48;6.70;;;19.30;88.30;;;;;;5034626;28;20406;-75
2021/09/15 03:27:37;;;;;;;7.60;6.10;;;19.20;88.80;;;;;;5034801;28;20393;-76
2021/09/15 03:30:04;;;;;;;8.47;6.10;;;19.10;88.60;;;;;;5052701;28;20385;-76
2021/09/15 03:32:30;;;;;;;7.90;6.13;;;19.10;88.70;;;;;;5052192;28;20385;-75
2021/09/15 03:34:56;;;;;;;12.17;6.50;;;19.10;88.80;;;;;;5034260;28;20409;-76
2021/09/15 03:37:21;;;;;;;8.30;6.45;;;19.10;88.90;;;;;;5034347;28;20483;-75
2021/09/15 03:39:47;;;;;;;7.53;5.80;;;19.20;88.70;;;;;;5034386;28;20396;-75
2021/09/15 03:42:12;;;;;;;9.98;6.55;;;19.10;88.70;;;;;;5034235;28;20887;-76
2021/09/15 03:44:38;;;;;;;8.27;6.72;;;19.10;88.90;;;;;;5034141;28;20389;-76
2021/09/15 03:47:04;;;;;;;9.20;6.90;;;19.10;89.10;;;;;;5034229;28;20397;-76
2021/09/15 03:49:29;;;;;;;8.38;6.65;;;19.20;89.10;;;;;;5034077;28;20397;-75
2021/09/15 03:51:55;;;;;;;8.07;6.70;;;19.10;88.90;;;;;;5034117;28;20425;-75
2021/09/15 03:54:21;;;;;;;9.57;7.38;;;19.10;89.70;;;;;;5033934;28;20399;-76
2021/09/15 03:56:47;;;;;;;8.45;6.85;;;19.10;89.70;;;;;;5033894;28;20479;-77
2021/09/15 03:59:12;;;;;;;10.77;7.07;;;19.10;89.50;;;;;;5034064;28;20874;-77
2021/09/15 04:01:38;;;;;;;9.85;7.18;;;19.10;90.10;;;;;;5033911;28;20394;-76
2021/09/15 04:04:04;;;;;;;9.47;6.47;;;19.10;90.00;;;;;;5033810;28;20390;-76
2021/09/15 04:06:29;;;;;;;8.88;6.22;;;19.10;89.90;;;;;;5033744;28;20758;-77
2021/09/15 04:08:55;;;;;;;10.38;6.95;;;19.10;89.60;;;;;;5033799;28;20394;-77
2021/09/15 04:11:21;;;;;;;11.10;7.20;;;19.10;89.30;;;;;;5033789;28;20386;-77
2021/09/15 04:13:46;;;;;;;10.80;6.90;;;19.10;89.90;;;;;;5033648;28;20382;-77
2021/09/15 04:16:12;;;;;;;8.88;7.15;;;19.10;89.90;;;;;;5033384;28;20444;-76
2021/09/15 04:18:38;;;;;;;10.87;6.90;;;19.10;89.90;;;;;;5033655;28;20389;-77
2021/09/15 04:21:03;;;;;;;10.90;7.60;;;19.00;89.60;;;;;;5033542;28;20386;-76
2021/09/15 04:23:35;;;;;;;12.70;7.23;;;19.10;89.70;;;;;;5033572;28;20401;-77
2021/09/15 04:31:31;;;;;;;9.30;6.93;;;19.10;89.20;;;;;;5051362;28;20400;-76
2021/09/15 04:33:59;;;;;;;8.43;7.30;;;19.10;89.20;;;;;;5033331;28;20455;-77
2021/09/15 04:36:24;;;;;;;8.73;7.00;;;19.00;89.50;;;;;;5033331;28;20435;-77
2021/09/15 04:38:50;;;;;;;9.43;7.13;;;19.00;89.40;;;;;;5051294;28;20426;-77
2021/09/15 04:41:16;;;;;;;7.63;6.65;;;19.10;89.70;;;;;;5050981;28;20435;-77
2021/09/15 04:43:42;;;;;;;8.32;6.55;;;19.00;89.20;;;;;;5033325;28;20750;-77
2021/09/15 04:46:08;;;;;;;9.82;6.45;;;19.00;89.20;;;;;;5033456;28;20500;-77
2021/09/15 04:48:37;;;;;;;9.18;6.97;;;19.10;89.20;;;;;;5033279;28;20413;-77
2021/09/15 04:51:03;;;;;;;10.48;7.13;;;19.10;89.10;;;;;;5051080;28;20468;-77
2021/09/15 04:53:29;;;;;;;7.90;6.80;;;19.10;89.30;;;;;;5033177;28;20389;-76
2021/09/15 04:55:55;;;;;;;9.37;6.77;;;19.00;89.00;;;;;;5051345;28;20877;-77
2021/09/15 04:58:20;;;;;;;10.02;6.95;;;19.10;89.00;;;;;;5033212;28;20402;-77
2021/09/15 05:00:46;;;;;;;9.07;6.85;;;19.10;89.40;;;;;;5033230;28;20468;-77
2021/09/15 05:03:12;;;;;;;7.83;6.57;;;19.00;89.50;;;;;;5033220;28;20404;-77
2021/09/15 05:05:38;;;;;;;11.00;6.50;;;19.00;89.40;;;;;;5033058;28;20872;-77
2021/09/15 05:08:04;;;;;;;8.02;6.63;;;19.00;89.50;;;;;;5033167;28;20468;-77
2021/09/15 05:10:29;;;;;;;10.68;7.32;;;19.00;89.30;;;;;;5032701;28;20397;-76
2021/09/15 05:12:56;;;;;;;13.47;7.27;;;19.00;89.30;;;;;;5033029;28;20425;-77
2021/09/15 05:15:23;;;;;;;9.75;7.25;;;19.00;89.30;;;;;;5032977;28;20481;-77
2021/09/15 05:17:49;;;;;;;10.07;7.70;;;19.00;89.20;;;;;;5032546;28;20451;-77
2021/09/15 05:20:18;;;;;;;10.05;7.68;;;19.00;89.50;;;;;;5033034;28;20447;-77
2021/09/15 05:22:46;;;;;;;12.18;7.97;;;18.90;89.80;;;;;;5032732;28;20401;-76
2021/09/15 05:25:16;;;;;;;12.48;8.32;;;18.90;90.20;;;;;;5050677;28;20436;-77
2021/09/15 05:27:42;;;;;;;12.15;8.30;;;18.90;90.60;;;;;;5066487;28;20390;-77
2021/09/15 05:30:09;;;;;;;13.77;9.18;;;18.90;91.10;;;;;;5036814;28;20388;-76
2021/09/15 05:32:35;;;;;;;11.57;7.70;;;18.90;90.40;;;;;;5036710;28;20390;-76
2021/09/15 05:35:01;;;;;;;11.30;8.65;;;19.00;90.00;;;;;;5036551;28;20482;-77
2021/09/15 05:37:27;;;;;;;12.05;8.40;;;18.90;90.40;;;;;;5036564;28;20392;-75
2021/09/15 05:39:53;;;;;;;12.70;8.88;;;19.00;90.40;;;;;;5069938;28;20762;-76
2021/09/15 05:42:18;;;;;;;10.90;8.40;;;19.00;91.10;;;;;;5069808;28;20785;-75
2021/09/15 05:44:44;;;;;;;12.27;8.68;;;19.00;90.80;;;;;;5036528;28;20480;-75
2021/09/15 05:47:09;;;;;;;15.03;10.50;;;18.90;91.20;;;;;;5054351;28;20754;-75
2021/09/15 05:49:35;;;;;;;15.15;10.00;;;18.90;92.00;;;;;;5036413;28;20496;-76
2021/09/15 05:52:01;;;;;;;12.00;10.20;;;18.80;92.40;;;;;;5036327;28;20429;-75
2021/09/15 05:54:26;;;;;;;12.13;9.20;;;18.90;92.40;;;;;;5036238;28;20381;-76
2021/09/15 05:56:52;;;;;;;12.63;8.82;;;18.90;92.10;;;;;;5053807;28;20906;-75
2021/09/15 05:59:18;;;;;;;14.87;10.00;;;18.90;91.50;;;;;;5036081;28;20389;-76
2021/09/15 06:01:43;;;;;;;14.30;10.43;;;18.90;92.40;;;;;;5036133;28;20396;-76
2021/09/15 06:04:09;;;;;;;13.63;10.03;;;18.90;92.50;;;;;;5053755;28;20389;-76
2021/09/15 06:06:34;;;;;;;14.27;9.95;;;18.90;92.40;;;;;;5053744;28;20475;-76
2021/09/15 06:09:00;;;;;;;14.07;10.13;;;18.90;92.60;;;;;;5053960;28;20381;-76
2021/09/15 06:11:27;;;;;;;12.80;9.68;;;18.90;92.80;;;;;;5053932;28;20381;-77
2021/09/15 06:13:54;;;;;;;16.45;11.13;;;19.00;92.50;;;;;;5035707;28;20386;-76
2021/09/15 06:16:23;;;;;;;17.48;10.63;;;19.00;92.90;;;;;;5035789;28;20420;-76
2021/09/15 06:18:48;;;;;;;13.70;10.50;;;19.00;92.90;;;;;;5053767;28;20386;-76
2021/09/15 06:21:14;;;;;;;16.37;11.13;;;19.00;93.00;;;;;;5035847;28;20393;-76
2021/09/15 06:23:40;;;;;;;16.52;11.52;;;19.00;93.00;;;;;;5053643;28;20468;-77
2021/09/15 06:26:05;;;;;;;15.43;11.18;;;19.10;92.70;;;;;;5053395;28;20480;-76
2021/09/15 06:28:31;;;;;;;14.23;10.23;;;19.10;93.00;;;;;;5035764;28;20761;-76
2021/09/15 06:30:58;;;;;;;21.52;11.60;;;19.10;93.10;;;;;;5053849;28;20846;-76
2021/09/15 06:33:24;;;;;;;15.65;10.50;;;19.00;93.40;;;;;;5053503;28;20727;-76
2021/09/15 06:35:51;;;;;;;14.90;10.77;;;19.00;92.90;;;;;;5053358;28;20416;-76
2021/09/15 06:38:17;;;;;;;19.33;11.48;;;19.10;93.00;;;;;;5053424;28;20428;-76
2021/09/15 06:40:43;;;;;;;14.52;10.70;;;19.10;93.20;;;;;;5035155;28;20425;-77
2021/09/15 06:43:08;;;;;;;15.83;11.37;;;19.10;93.20;;;;;;5053001;28;20374;-76
2021/09/15 06:45:34;;;;;;;18.35;10.80;;;19.10;93.30;;;;;;5035349;28;20401;-76
2021/09/15 06:48:00;;;;;;;17.42;10.80;;;19.10;93.30;;;;;;5052929;28;20389;-76
2021/09/15 06:50:25;;;;;;;14.47;10.50;;;19.10;93.10;;;;;;5035281;28;20742;-77
2021/09/15 06:52:51;;;;;;;14.18;10.27;;;19.10;93.20;;;;;;5053397;28;20844;-77
2021/09/15 06:55:16;;;;;;;16.00;10.30;;;19.10;93.20;;;;;;5034864;28;20421;-78
2021/09/15 06:57:42;;;;;;;14.15;9.98;;;19.10;93.10;;;;;;5052252;28;20782;-76
2021/09/15 07:00:10;;;;;;;15.02;9.93;;;19.10;93.00;;;;;;5052585;28;20374;-76
2021/09/15 07:02:36;;;;;;;13.05;9.70;;;19.20;93.00;;;;;;5052568;28;20393;-76
2021/09/15 07:05:03;;;;;;;12.85;9.68;;;19.20;93.20;;;;;;5034785;28;20414;-76
2021/09/15 07:07:29;;;;;;;13.73;9.30;;;19.20;93.10;;;;;;5034726;28;20439;-75
2021/09/15 07:09:54;;;;;;;12.77;8.85;;;19.10;93.00;;;;;;5035042;28;20798;-76
2021/09/15 07:12:21;;;;;;;12.02;8.93;;;19.10;93.10;;;;;;5053127;28;20430;-76
2021/09/15 07:14:46;;;;;;;12.30;9.20;;;19.10;93.20;;;;;;5052908;28;20393;-76
2021/09/15 07:17:12;;;;;;;12.18;8.98;;;19.10;93.20;;;;;;5034800;28;20471;-77
2021/09/15 07:19:37;;;;;;;12.03;9.00;;;19.20;93.20;;;;;;5034716;28;20385;-76
2021/09/15 07:22:03;;;;;;;12.55;9.02;;;19.20;93.10;;;;;;5034747;28;20431;-75
2021/09/15 07:24:29;;;;;;;12.23;9.03;;;19.30;93.20;;;;;;5067941;28;20456;-76
2021/09/15 07:26:55;;;;;;;10.80;8.82;;;19.30;93.20;;;;;;5034559;28;20877;-76
2021/09/15 07:29:21;;;;;;;14.80;9.13;;;19.30;92.90;;;;;;5052367;28;20410;-77
2021/09/15 07:31:46;;;;;;;15.15;9.43;;;19.40;93.40;;;;;;5034426;28;20471;-76
2021/09/15 07:34:12;;;;;;;11.63;8.93;;;19.40;93.30;;;;;;5034158;28;20786;-76
2021/09/15 07:36:39;;;;;;;12.95;9.73;;;19.50;93.50;;;;;;5034257;28;20773;-77
2021/09/15 07:39:06;;;;;;;14.85;9.52;;;19.50;93.50;;;;;;5034314;28;20389;-75
2021/09/15 07:41:33;;;;;;;10.82;8.05;;;19.50;93.20;;;;;;5034123;28;20386;-78
2021/09/15 07:43:59;;;;;;;10.63;7.85;;;19.50;93.20;;;;;;5052103;28;20401;-78
2021/09/15 07:46:25;;;;;;;10.25;8.00;;;19.50;93.00;;;;;;5052116;28;20392;-76
2021/09/15 07:48:52;;;;;;;12.05;8.30;;;19.60;93.20;;;;;;5034187;28;20385;-76
2021/09/15 07:51:18;;;;;;;13.20;8.25;;;19.60;93.50;;;;;;5051651;28;20381;-77
2021/09/15 07:53:44;;;;;;;9.80;7.97;;;19.60;93.10;;;;;;5034059;28;20739;-76
2021/09/15 07:56:10;;;;;;;11.90;7.70;;;19.60;93.40;;;;;;5033813;28;20429;-77
2021/09/15 07:58:36;;;;;;;11.25;8.00;;;19.60;93.10;;;;;;5033994;28;20480;-77
2021/09/15 08:01:02;;;;;;;9.80;6.43;;;19.70;93.40;;;;;;5051904;28;20477;-77
2021/09/15 08:03:27;;;;;;;9.45;6.68;;;19.70;92.70;;;;;;5034193;28;20388;-76
2021/09/15 08:05:57;;;;;;;10.73;6.95;;;19.60;92.80;;;;;;5034168;28;20464;-77
2021/09/15 08:08:23;;;;;;;8.83;6.47;;;19.70;93.00;;;;;;5051728;28;20819;-77
2021/09/15 08:10:50;;;;;;;9.07;6.30;;;19.80;92.70;;;;;;5033750;28;20393;-77
2021/09/15 08:13:19;;;;;;;11.13;6.60;;;19.80;92.90;;;;;;5033793;28;20393;-76
2021/09/15 08:15:45;;;;;;;9.40;5.55;;;19.90;92.40;;;;;;5051491;28;20437;-77
2021/09/15 08:18:10;;;;;;;10.73;5.80;;;19.80;91.90;;;;;;5033719;28;20429;-76
2021/09/15 08:20:36;;;;;;;7.63;4.97;;;19.80;92.10;;;;;;5033691;28;20738;-77
2021/09/15 08:23:02;;;;;;;5.93;5.07;;;19.80;91.90;;;;;;5051223;28;20479;-76
2021/09/15 08:25:28;;;;;;;6.47;4.93;;;19.80;91.70;;;;;;5033467;28;20446;-77
2021/09/15 08:27:54;;;;;;;13.38;4.97;;;19.80;91.70;;;;;;5033487;28;20406;-76
2021/09/15 08:30:19;;;;;;;8.17;5.23;;;19.80;91.70;;;;;;5033610;28;20476;-77
2021/09/15 08:32:45;;;;;;;8.80;5.28;;;19.80;91.70;;;;;;5033395;28;20927;-78
2021/09/15 08:35:11;;;;;;;7.97;5.30;;;19.80;91.80;;;;;;5033361;28;20433;-76
2021/09/15 08:37:38;;;;;;;6.97;4.93;;;19.80;92.20;;;;;;5033436;28;20468;-77
2021/09/15 08:40:06;;;;;;;7.07;5.18;;;19.80;91.50;;;;;;5033344;28;20389;-78
2021/09/15 08:42:32;;;;;;;8.75;5.10;;;19.80;91.10;;;;;;5033222;28;20447;-79
2021/09/15 08:44:58;;;;;;;7.43;5.03;;;19.90;91.00;;;;;;5033291;28;20390;-77
2021/09/15 08:47:26;;;;;;;9.27;5.40;;;19.90;91.30;;;;;;5033265;28;20392;-78
2021/09/15 08:49:52;;;;;;;8.32;5.00;;;20.00;91.60;;;;;;5033219;28;20397;-79
2021/09/15 08:52:17;;;;;;;8.18;4.88;;;20.00;91.60;;;;;;5033264;28;20397;-78
2021/09/15 08:54:43;;;;;;;9.10;5.10;;;19.90;91.00;;;;;;5033121;28;20472;-79
2021/09/15 08:57:09;;;;;;;6.83;4.20;;;19.90;90.40;;;;;;5033278;28;20425;-78
2021/09/15 08:59:34;;;;;;;6.38;5.18;;;19.90;90.80;;;;;;5033225;28;20404;-79
2021/09/15 09:02:12;;;;;;;7.13;5.00;;;19.80;91.20;;;;;;5033446;28;20392;-79
2021/09/15 09:04:52;;;;;;;7.47;5.50;;;19.80;91.10;;;;;;5036668;28;20425;-78
2021/09/15 09:07:19;;;;;;;8.50;4.82;;;19.80;90.90;;;;;;5037268;28;20738;-79
2021/09/15 09:09:46;;;;;;;8.43;5.17;;;19.80;90.90;;;;;;5037264;28;20488;-80
2021/09/15 09:12:11;;;;;;;9.13;6.00;;;19.90;91.10;;;;;;5055140;28;20726;-79
2021/09/15 09:14:37;;;;;;;7.63;6.17;;;19.80;90.70;;;;;;5036957;28;20389;-78
2021/09/15 09:17:03;;;;;;;9.05;5.80;;;19.90;90.60;;;;;;5037111;28;20393;-79
2021/09/15 09:19:29;;;;;;;9.00;6.07;;;20.00;90.60;;;;;;5037120;28;20397;-78
2021/09/15 09:21:54;;;;;;;8.15;5.78;;;19.90;90.20;;;;;;5037087;28;20471;-79
2021/09/15 09:24:25;;;;;;;7.28;5.43;;;19.80;90.00;;;;;;5036410;28;20402;-78
2021/09/15 09:26:56;;;;;;;9.17;5.80;;;19.90;90.60;;;;;;5036385;28;20818;-79
2021/09/15 09:29:36;;;;;;;9.17;5.83;;;19.90;90.40;;;;;;5034598;28;20770;-79
2021/09/15 09:32:05;;;;;;;8.40;6.47;;;19.90;90.40;;;;;;5034365;28;20413;-78
2021/09/15 09:34:46;;;;;;;10.17;6.07;;;19.90;90.10;;;;;;5036262;28;20406;-78
2021/09/15 09:37:18;;;;;;;7.28;5.97;;;20.00;89.90;;;;;;5035551;28;20401;-78
2021/09/15 09:39:48;;;;;;;10.40;6.57;;;20.10;90.30;;;;;;5016904;28;20399;-78
2021/09/15 09:42:23;;;;;;;11.05;6.45;;;20.20;90.00;;;;;;5016933;28;20911;-78
2021/09/15 09:45:09;;;;;;;12.68;6.50;;;20.20;89.80;;;;;;5049949;28;20743;-78
2021/09/15 09:47:37;;;;;;;9.10;6.80;;;20.10;89.90;;;;;;5017095;28;20870;-78
2021/09/15 09:50:17;;;;;;;10.38;6.40;;;20.00;90.90;;;;;;5034696;28;20472;-78
2021/09/15 09:53:00;;;;;;;10.77;6.32;;;20.00;90.60;;;;;;5016949;28;20846;-78
2021/09/15 09:55:28;;;;;;;10.37;7.20;;;20.00;91.40;;;;;;5016170;28;21016;-79
2021/09/15 09:57:54;;;;;;;7.50;6.57;;;20.00;91.40;;;;;;5033324;28;20390;-82
2021/09/15 10:00:22;;;;;;;9.52;6.53;;;20.00;91.10;;;;;;5033137;28;20821;-78
2021/09/15 10:02:48;;;;;;;9.90;6.77;;;20.10;91.30;;;;;;5032698;28;20391;-77
2021/09/15 10:05:15;;;;;;;12.05;6.72;;;20.10;91.60;;;;;;5032547;28;20844;-77
2021/09/15 10:07:41;;;;;;;10.38;6.93;;;20.00;91.40;;;;;;5015130;28;20819;-78
2021/09/15 10:10:11;;;;;;;9.93;6.82;;;19.90;91.50;;;;;;5015068;28;20395;-77
2021/09/15 10:12:38;;;;;;;12.00;7.35;;;19.90;91.90;;;;;;5033124;28;20728;-78
2021/09/15 10:15:06;;;;;;;11.10;6.97;;;19.80;92.00;;;;;;5032056;28;20407;-78
2021/09/15 10:17:35;;;;;;;10.52;7.43;;;19.90;92.30;;;;;;5014766;28;20394;-78
2021/09/15 10:20:01;;;;;;;10.23;6.65;;;20.00;92.00;;;;;;5015014;28;20387;-78
2021/09/15 10:22:31;;;;;;;8.18;6.55;;;20.00;92.20;;;;;;5015108;28;20946;-78
2021/09/15 10:24:58;;;;;;;10.27;6.18;;;20.00;91.90;;;;;;5014867;28;20494;-78
2021/09/15 10:27:26;;;;;;;12.88;6.63;;;19.90;91.90;;;;;;5014992;28;20403;-78
2021/09/15 10:30:06;;;;;;;8.43;6.35;;;19.90;92.20;;;;;;5014872;28;20395;-77
2021/09/15 10:32:36;;;;;;;10.77;6.77;;;19.90;92.20;;;;;;5047833;28;20399;-78
2021/09/15 10:35:07;;;;;;;11.95;6.80;;;20.00;92.70;;;;;;5014662;28;20437;-79
2021/09/15 10:37:32;;;;;;;14.50;7.18;;;19.90;92.30;;;;;;5014770;28;20401;-79
2021/09/15 10:40:08;;;;;;;9.68;6.05;;;20.00;92.50;;;;;;5047708;28;20391;-77
2021/09/15 10:42:55;;;;;;;10.95;5.70;;;20.00;92.40;;;;;;5014428;28;20512;-78
2021/09/15 10:45:25;;;;;;;11.77;6.10;;;20.10;92.30;;;;;;5014804;28;20458;-79
2021/09/15 10:48:04;;;;;;;7.50;5.37;;;20.10;91.90;;;;;;5014551;28;20498;-79
2021/09/15 10:50:30;;;;;;;5.25;4.68;;;20.10;92.00;;;;;;5047849;28;20406;-78
2021/09/15 10:53:07;;;;;;;7.38;4.30;;;20.20;91.40;;;;;;5047488;28;20391;-78
2021/09/15 10:55:53;;;;;;;9.02;4.63;;;20.20;91.50;;;;;;4983901;28;1805252;-79
2021/09/15 10:58:42;;;;;;;7.03;4.50;;;20.10;91.30;;;;;;5015343;28;20434;-79
2021/09/15 11:01:08;;;;;;;5.75;3.85;;;20.20;91.80;;;;;;5015515;28;20407;-78
2021/09/15 11:03:50;;;;;;;5.25;3.55;;;20.20;91.20;;;;;;5015233;28;20852;-77
2021/09/15 11:06:17;;;;;;;6.60;3.45;;;20.10;91.00;;;;;;5015325;28;20449;-77
2021/09/15 11:08:53;;;;;;;5.07;3.47;;;20.00;91.20;;;;;;5048359;28;20406;-78
2021/09/15 11:11:22;;;;;;;4.38;3.13;;;20.00;91.70;;;;;;5015159;28;20466;-78
2021/09/15 11:13:59;;;;;;;6.22;3.47;;;19.90;91.80;;;;;;5048065;28;20394;-78
2021/09/15 11:16:43;;;;;;;6.80;3.57;;;19.90;91.70;;;;;;5014998;28;20430;-78
2021/09/15 11:19:10;;;;;;;4.50;3.13;;;19.90;91.90;;;;;;5015029;28;20752;-77
2021/09/15 11:21:46;;;;;;;6.93;3.30;;;19.90;91.70;;;;;;5047976;28;20423;-78
2021/09/15 11:24:15;;;;;;;4.15;3.00;;;19.80;91.80;;;;;;5014880;28;20391;-78
2021/09/15 11:26:44;;;;;;;5.40;3.30;;;19.90;91.80;;;;;;5032051;28;20434;-77
2021/09/15 11:29:11;;;;;;;6.75;2.88;;;19.90;91.80;;;;;;5032528;28;20391;-78
2021/09/15 11:31:39;;;;;;;3.92;3.00;;;19.90;91.90;;;;;;5014805;28;20864;-77
2021/09/15 11:34:13;;;;;;;3.97;3.20;;;19.90;91.80;;;;;;5014670;28;20789;-77
2021/09/15 11:36:39;;;;;;;4.95;3.00;;;20.00;91.70;;;;;;5014633;28;20939;-78
2021/09/15 11:39:07;;;;;;;6.30;3.07;;;20.00;91.50;;;;;;5032370;28;20375;-77
2021/09/15 11:41:34;;;;;;;3.73;3.00;;;20.00;91.60;;;;;;5014592;28;20387;-77
2021/09/15 11:43:59;;;;;;;3.57;2.90;;;20.00;91.40;;;;;;5014490;28;20402;-77
2021/09/15 11:46:34;;;;;;;5.80;3.38;;;20.10;91.40;;;;;;5014402;28;20388;-77
2021/09/15 11:49:00;;;;;;;5.28;3.00;;;20.10;91.30;;;;;;5014486;28;20427;-78
2021/09/15 11:51:27;;;;;;;3.97;3.28;;;20.10;91.50;;;;;;5014343;28;20387;-78
2021/09/15 11:54:17;;;;;;;5.03;4.38;;;20.20;91.90;;;;;;5014231;28;20399;-79
2021/09/15 11:59:07;;;;;;;5.67;4.47;;;20.10;91.30;;;;;;5031915;28;20394;-79
2021/09/15 12:01:37;;;;;;;5.63;4.28;;;20.20;91.30;;;;;;5014244;28;20387;-78
2021/09/15 12:04:05;;;;;;;6.28;4.68;;;20.10;91.30;;;;;;5014095;28;20395;-78
2021/09/15 12:06:32;;;;;;;9.18;5.43;;;20.10;91.50;;;;;;5014061;28;20395;-79
2021/09/15 12:08:59;;;;;;;9.48;5.20;;;20.00;91.40;;;;;;5014085;28;20421;-78
2021/09/15 12:11:33;;;;;;;6.22;5.00;;;20.10;91.30;;;;;;5014023;28;20433;-77
2021/09/15 12:14:01;;;;;;;6.82;4.90;;;20.10;91.50;;;;;;5013962;28;20396;-77
2021/09/15 12:16:32;;;;;;;8.63;5.38;;;20.20;91.50;;;;;;5013922;28;20429;-77
2021/09/15 12:18:58;;;;;;;7.00;5.72;;;20.30;90.90;;;;;;5013945;28;20474;-77
2021/09/15 12:21:26;;;;;;;6.68;5.00;;;20.20;91.00;;;;;;5013833;28;20396;-78
2021/09/15 12:24:04;;;;;;;6.40;4.88;;;20.20;91.00;;;;;;5031566;28;20395;-78
2021/09/15 12:26:30;;;;;;;7.07;4.80;;;20.30;91.20;;;;;;5013946;28;20395;-78
2021/09/15 12:29:09;;;;;;;7.32;4.50;;;20.30;91.10;;;;;;5013840;28;20414;-78
2021/09/15 12:31:51;;;;;;;6.10;4.80;;;20.30;90.80;;;;;;5013842;28;20459;-78
2021/09/15 12:34:32;;;;;;;4.70;4.20;;;20.30;90.60;;;;;;5013384;28;20390;-77
2021/09/15 12:37:14;;;;;;;5.47;4.05;;;20.30;90.50;;;;;;5013524;28;20518;-77
2021/09/15 12:39:51;;;;;;;6.28;4.30;;;20.30;90.70;;;;;;5013587;28;20387;-78
2021/09/15 12:42:20;;;;;;;7.40;4.90;;;20.30;91.00;;;;;;5013580;28;20880;-78
2021/09/15 12:44:46;;;;;;;11.15;6.38;;;20.20;90.40;;;;;;5013302;28;20390;-77
2021/09/15 12:47:12;;;;;;;11.25;7.22;;;20.10;90.40;;;;;;5013587;28;20387;-79
2021/09/15 12:49:40;;;;;;;11.32;6.18;;;20.10;90.30;;;;;;5013880;28;20396;-78
2021/09/15 12:52:15;;;;;;;9.00;5.85;;;20.20;90.80;;;;;;5013482;28;20462;-78